sensor_id;sensor_type;location;lat;lon;timestamp;P1;durP1;ratioP1;P2;durP2;ratioP2
64293;SDS011;50636;45.596;5.258;2023-03-01T00:02:11;17.70;;;12.45;;
64293;SDS011;50636;45.596;5.258;2023-03-01T00:04:38;14.38;;;12.73;;
64293;SDS011;50636;45.596;5.258;2023-03-01T00:07:05;16.98;;;13.18;;
64293;SDS011;50636;45.596;5.258;2023-03-01T00:09:31;14.57;;;12.48;;
64293;SDS011;50636;45.596;5.258;2023-03-01T00:11:58;16.27;;;12.00;;
64293;SDS011;50636;45.596;5.258;2023-03-01T00:14:26;16.38;;;13.18;;
64293;SDS011;50636;45.596;5.258;2023-03-01T00:16:54;18.25;;;13.90;;
64293;SDS011;50636;45.596;5.258;2023-03-01T00:19:21;19.90;;;14.15;;
64293;SDS011;50636;45.596;5.258;2023-03-01T00:21:47;18.95;;;13.55;;
64293;SDS011;50636;45.596;5.258;2023-03-01T00:24:20;24.42;;;15.93;;
64293;SDS011;50636;45.596;5.258;2023-03-01T00:26:52;18.73;;;13.45;;
64293;SDS011;50636;45.596;5.258;2023-03-01T00:29:53;19.23;;;13.23;;
64293;SDS011;50636;45.596;5.258;2023-03-01T00:32:18;18.95;;;12.55;;
64293;SDS011;50636;45.596;5.258;2023-03-01T00:34:57;16.67;;;12.93;;
64293;SDS011;50636;45.596;5.258;2023-03-01T00:37:32;18.98;;;12.80;;
64293;SDS011;50636;45.596;5.258;2023-03-01T00:40:12;20.95;;;14.43;;
64293;SDS011;50636;45.596;5.258;2023-03-01T00:42:45;17.85;;;12.95;;
64293;SDS011;50636;45.596;5.258;2023-03-01T00:45:11;17.13;;;12.90;;
64293;SDS011;50636;45.596;5.258;2023-03-01T00:47:41;19.70;;;13.50;;
64293;SDS011;50636;45.596;5.258;2023-03-01T00:50:23;14.45;;;12.80;;
64293;SDS011;50636;45.596;5.258;2023-03-01T00:58:34;19.13;;;13.23;;
64293;SDS011;50636;45.596;5.258;2023-03-01T01:01:18;20.38;;;13.77;;
64293;SDS011;50636;45.596;5.258;2023-03-01T01:04:24;20.02;;;14.13;;
64293;SDS011;50636;45.596;5.258;2023-03-01T01:06:50;21.27;;;15.73;;
64293;SDS011;50636;45.596;5.258;2023-03-01T01:12:06;18.42;;;16.15;;
64293;SDS011;50636;45.596;5.258;2023-03-01T01:14:51;16.00;;;12.85;;
64293;SDS011;50636;45.596;5.258;2023-03-01T01:17:17;17.38;;;13.23;;
64293;SDS011;50636;45.596;5.258;2023-03-01T01:20:02;22.17;;;14.25;;
64293;SDS011;50636;45.596;5.258;2023-03-01T01:22:37;21.55;;;14.45;;
64293;SDS011;50636;45.596;5.258;2023-03-01T01:27:50;16.20;;;13.05;;
64293;SDS011;50636;45.596;5.258;2023-03-01T01:30:21;16.92;;;13.90;;
64293;SDS011;50636;45.596;5.258;2023-03-01T01:32:50;17.20;;;12.45;;
64293;SDS011;50636;45.596;5.258;2023-03-01T01:35:21;23.50;;;13.68;;
64293;SDS011;50636;45.596;5.258;2023-03-01T01:37:48;17.45;;;12.82;;
64293;SDS011;50636;45.596;5.258;2023-03-01T01:40:17;16.98;;;13.60;;
64293;SDS011;50636;45.596;5.258;2023-03-01T01:42:44;15.10;;;12.68;;
64293;SDS011;50636;45.596;5.258;2023-03-01T01:45:46;17.75;;;14.00;;
64293;SDS011;50636;45.596;5.258;2023-03-01T01:48:16;18.33;;;13.02;;
64293;SDS011;50636;45.596;5.258;2023-03-01T01:51:18;17.35;;;11.80;;
64293;SDS011;50636;45.596;5.258;2023-03-01T01:54:28;16.23;;;12.88;;
64293;SDS011;50636;45.596;5.258;2023-03-01T01:57:39;44.38;;;25.05;;
64293;SDS011;50636;45.596;5.258;2023-03-01T02:00:39;35.75;;;23.13;;
64293;SDS011;50636;45.596;5.258;2023-03-01T02:03:25;34.97;;;22.73;;
64293;SDS011;50636;45.596;5.258;2023-03-01T02:06:29;16.52;;;14.18;;
64293;SDS011;50636;45.596;5.258;2023-03-01T02:09:56;22.70;;;14.23;;
64293;SDS011;50636;45.596;5.258;2023-03-01T02:12:35;19.38;;;14.38;;
64293;SDS011;50636;45.596;5.258;2023-03-01T02:15:04;20.70;;;13.50;;
64293;SDS011;50636;45.596;5.258;2023-03-01T02:23:25;24.10;;;14.18;;
64293;SDS011;50636;45.596;5.258;2023-03-01T02:26:09;16.90;;;14.07;;
64293;SDS011;50636;45.596;5.258;2023-03-01T02:29:02;16.35;;;14.10;;
64293;SDS011;50636;45.596;5.258;2023-03-01T02:34:45;18.90;;;13.93;;
64293;SDS011;50636;45.596;5.258;2023-03-01T02:37:13;16.80;;;14.32;;
64293;SDS011;50636;45.596;5.258;2023-03-01T02:40:19;17.92;;;14.02;;
64293;SDS011;50636;45.596;5.258;2023-03-01T02:49:00;19.23;;;14.02;;
64293;SDS011;50636;45.596;5.258;2023-03-01T02:57:32;18.42;;;13.45;;
64293;SDS011;50636;45.596;5.258;2023-03-01T03:00:09;25.17;;;14.43;;
64293;SDS011;50636;45.596;5.258;2023-03-01T03:11:52;23.08;;;14.10;;
64293;SDS011;50636;45.596;5.258;2023-03-01T03:14:36;20.15;;;14.40;;
64293;SDS011;50636;45.596;5.258;2023-03-01T03:17:01;19.48;;;13.93;;
64293;SDS011;50636;45.596;5.258;2023-03-01T03:20:04;24.05;;;17.02;;
64293;SDS011;50636;45.596;5.258;2023-03-01T03:23:08;25.55;;;14.50;;
64293;SDS011;50636;45.596;5.258;2023-03-01T03:25:49;23.40;;;13.90;;
64293;SDS011;50636;45.596;5.258;2023-03-01T03:28:33;16.83;;;14.18;;
64293;SDS011;50636;45.596;5.258;2023-03-01T03:31:11;20.08;;;15.82;;
64293;SDS011;50636;45.596;5.258;2023-03-01T03:33:53;20.15;;;13.85;;
64293;SDS011;50636;45.596;5.258;2023-03-01T03:36:28;20.42;;;13.88;;
64293;SDS011;50636;45.596;5.258;2023-03-01T03:41:57;17.40;;;13.82;;
64293;SDS011;50636;45.596;5.258;2023-03-01T03:44:38;18.73;;;15.15;;
64293;SDS011;50636;45.596;5.258;2023-03-01T03:47:08;17.33;;;14.55;;
64293;SDS011;50636;45.596;5.258;2023-03-01T03:49:43;21.77;;;15.07;;
64293;SDS011;50636;45.596;5.258;2023-03-01T03:52:28;17.85;;;14.48;;
64293;SDS011;50636;45.596;5.258;2023-03-01T03:55:04;17.08;;;15.23;;
64293;SDS011;50636;45.596;5.258;2023-03-01T03:58:09;18.58;;;13.38;;
64293;SDS011;50636;45.596;5.258;2023-03-01T04:00:49;19.42;;;14.32;;
64293;SDS011;50636;45.596;5.258;2023-03-01T04:03:35;22.40;;;15.48;;
64293;SDS011;50636;45.596;5.258;2023-03-01T04:06:03;19.55;;;14.75;;
64293;SDS011;50636;45.596;5.258;2023-03-01T04:08:41;26.23;;;14.95;;
64293;SDS011;50636;45.596;5.258;2023-03-01T04:11:07;20.30;;;13.27;;
64293;SDS011;50636;45.596;5.258;2023-03-01T04:14:09;23.50;;;15.75;;
64293;SDS011;50636;45.596;5.258;2023-03-01T04:16:51;20.27;;;15.20;;
64293;SDS011;50636;45.596;5.258;2023-03-01T04:19:17;20.75;;;15.95;;
64293;SDS011;50636;45.596;5.258;2023-03-01T04:22:21;18.00;;;14.52;;
64293;SDS011;50636;45.596;5.258;2023-03-01T04:25:03;18.10;;;15.07;;
64293;SDS011;50636;45.596;5.258;2023-03-01T04:27:32;20.83;;;15.77;;
64293;SDS011;50636;45.596;5.258;2023-03-01T04:30:43;18.63;;;15.10;;
64293;SDS011;50636;45.596;5.258;2023-03-01T04:35:48;18.92;;;15.45;;
64293;SDS011;50636;45.596;5.258;2023-03-01T04:38:26;20.80;;;14.82;;
64293;SDS011;50636;45.596;5.258;2023-03-01T04:43:48;18.90;;;15.82;;
64293;SDS011;50636;45.596;5.258;2023-03-01T04:49:08;23.80;;;18.08;;
64293;SDS011;50636;45.596;5.258;2023-03-01T04:51:52;23.10;;;16.42;;
64293;SDS011;50636;45.596;5.258;2023-03-01T04:54:31;18.95;;;14.80;;
64293;SDS011;50636;45.596;5.258;2023-03-01T04:57:10;22.00;;;16.73;;
64293;SDS011;50636;45.596;5.258;2023-03-01T04:59:39;20.92;;;15.20;;
64293;SDS011;50636;45.596;5.258;2023-03-01T05:02:11;19.05;;;16.02;;
64293;SDS011;50636;45.596;5.258;2023-03-01T05:04:42;23.80;;;16.48;;
64293;SDS011;50636;45.596;5.258;2023-03-01T05:07:12;18.55;;;16.33;;
64293;SDS011;50636;45.596;5.258;2023-03-01T05:09:45;20.88;;;17.23;;
64293;SDS011;50636;45.596;5.258;2023-03-01T05:12:14;19.02;;;15.25;;
64293;SDS011;50636;45.596;5.258;2023-03-01T05:14:45;23.23;;;16.42;;
64293;SDS011;50636;45.596;5.258;2023-03-01T05:17:18;29.65;;;17.05;;
64293;SDS011;50636;45.596;5.258;2023-03-01T05:19:45;25.50;;;21.63;;
64293;SDS011;50636;45.596;5.258;2023-03-01T05:22:25;20.63;;;15.77;;
64293;SDS011;50636;45.596;5.258;2023-03-01T05:24:51;20.85;;;16.52;;
64293;SDS011;50636;45.596;5.258;2023-03-01T05:27:19;36.53;;;17.10;;
64293;SDS011;50636;45.596;5.258;2023-03-01T05:30:05;22.45;;;16.40;;
64293;SDS011;50636;45.596;5.258;2023-03-01T05:32:54;27.30;;;18.05;;
64293;SDS011;50636;45.596;5.258;2023-03-01T05:35:21;21.17;;;16.63;;
64293;SDS011;50636;45.596;5.258;2023-03-01T05:37:49;24.52;;;16.95;;
64293;SDS011;50636;45.596;5.258;2023-03-01T05:40:17;18.98;;;15.80;;
64293;SDS011;50636;45.596;5.258;2023-03-01T05:42:47;22.83;;;17.60;;
64293;SDS011;50636;45.596;5.258;2023-03-01T05:45:16;20.75;;;17.15;;
64293;SDS011;50636;45.596;5.258;2023-03-01T05:47:45;23.90;;;16.48;;
64293;SDS011;50636;45.596;5.258;2023-03-01T05:50:17;25.58;;;17.52;;
64293;SDS011;50636;45.596;5.258;2023-03-01T05:52:48;19.08;;;15.15;;
64293;SDS011;50636;45.596;5.258;2023-03-01T05:55:17;23.58;;;17.33;;
64293;SDS011;50636;45.596;5.258;2023-03-01T05:57:48;23.83;;;16.50;;
64293;SDS011;50636;45.596;5.258;2023-03-01T06:00:18;19.30;;;16.23;;
64293;SDS011;50636;45.596;5.258;2023-03-01T06:02:46;21.75;;;15.70;;
64293;SDS011;50636;45.596;5.258;2023-03-01T06:05:13;22.52;;;14.90;;
64293;SDS011;50636;45.596;5.258;2023-03-01T06:07:42;20.95;;;16.02;;
64293;SDS011;50636;45.596;5.258;2023-03-01T06:10:11;22.10;;;16.00;;
64293;SDS011;50636;45.596;5.258;2023-03-01T06:12:40;32.92;;;18.08;;
64293;SDS011;50636;45.596;5.258;2023-03-01T06:15:10;24.92;;;16.30;;
64293;SDS011;50636;45.596;5.258;2023-03-01T06:17:43;20.15;;;17.20;;
64293;SDS011;50636;45.596;5.258;2023-03-01T06:20:19;32.95;;;18.25;;
64293;SDS011;50636;45.596;5.258;2023-03-01T06:22:49;22.15;;;16.48;;
64293;SDS011;50636;45.596;5.258;2023-03-01T06:25:22;30.73;;;18.40;;
64293;SDS011;50636;45.596;5.258;2023-03-01T06:27:50;26.73;;;17.58;;
64293;SDS011;50636;45.596;5.258;2023-03-01T06:30:19;30.83;;;20.63;;
64293;SDS011;50636;45.596;5.258;2023-03-01T06:35:33;43.35;;;30.77;;
64293;SDS011;50636;45.596;5.258;2023-03-01T06:38:17;28.73;;;22.35;;
64293;SDS011;50636;45.596;5.258;2023-03-01T06:40:56;33.10;;;24.13;;
64293;SDS011;50636;45.596;5.258;2023-03-01T06:43:39;56.92;;;31.80;;
64293;SDS011;50636;45.596;5.258;2023-03-01T06:46:21;36.65;;;23.85;;
64293;SDS011;50636;45.596;5.258;2023-03-01T06:49:02;59.22;;;45.88;;
64293;SDS011;50636;45.596;5.258;2023-03-01T06:51:39;36.25;;;22.73;;
64293;SDS011;50636;45.596;5.258;2023-03-01T06:54:15;30.77;;;19.90;;
64293;SDS011;50636;45.596;5.258;2023-03-01T06:56:46;25.83;;;20.40;;
64293;SDS011;50636;45.596;5.258;2023-03-01T06:59:13;24.27;;;18.08;;
64293;SDS011;50636;45.596;5.258;2023-03-01T07:01:40;27.92;;;18.33;;
64293;SDS011;50636;45.596;5.258;2023-03-01T07:04:10;22.45;;;16.00;;
64293;SDS011;50636;45.596;5.258;2023-03-01T07:06:38;22.63;;;17.95;;
64293;SDS011;50636;45.596;5.258;2023-03-01T07:09:06;39.58;;;19.40;;
64293;SDS011;50636;45.596;5.258;2023-03-01T07:11:33;28.75;;;19.50;;
64293;SDS011;50636;45.596;5.258;2023-03-01T07:13:59;34.30;;;19.02;;
64293;SDS011;50636;45.596;5.258;2023-03-01T07:16:28;29.35;;;18.60;;
64293;SDS011;50636;45.596;5.258;2023-03-01T07:18:55;25.90;;;19.73;;
64293;SDS011;50636;45.596;5.258;2023-03-01T07:21:23;33.45;;;25.58;;
64293;SDS011;50636;45.596;5.258;2023-03-01T07:23:51;31.95;;;23.90;;
64293;SDS011;50636;45.596;5.258;2023-03-01T07:26:18;40.40;;;25.00;;
64293;SDS011;50636;45.596;5.258;2023-03-01T07:28:44;32.60;;;27.90;;
64293;SDS011;50636;45.596;5.258;2023-03-01T07:31:11;31.80;;;23.88;;
64293;SDS011;50636;45.596;5.258;2023-03-01T07:33:39;51.63;;;29.88;;
64293;SDS011;50636;45.596;5.258;2023-03-01T07:36:06;40.33;;;31.50;;
64293;SDS011;50636;45.596;5.258;2023-03-01T07:38:35;36.47;;;27.98;;
64293;SDS011;50636;45.596;5.258;2023-03-01T07:41:02;36.13;;;25.05;;
64293;SDS011;50636;45.596;5.258;2023-03-01T07:43:30;46.00;;;23.55;;
64293;SDS011;50636;45.596;5.258;2023-03-01T07:46:03;26.52;;;20.17;;
64293;SDS011;50636;45.596;5.258;2023-03-01T07:48:32;37.42;;;21.58;;
64293;SDS011;50636;45.596;5.258;2023-03-01T07:51:03;28.70;;;18.63;;
64293;SDS011;50636;45.596;5.258;2023-03-01T07:53:32;23.90;;;19.23;;
64293;SDS011;50636;45.596;5.258;2023-03-01T07:56:04;28.95;;;19.65;;
64293;SDS011;50636;45.596;5.258;2023-03-01T07:58:41;28.73;;;19.73;;
64293;SDS011;50636;45.596;5.258;2023-03-01T08:01:20;28.23;;;20.02;;
64293;SDS011;50636;45.596;5.258;2023-03-01T08:03:48;29.85;;;19.15;;
64293;SDS011;50636;45.596;5.258;2023-03-01T08:06:40;28.38;;;19.38;;
64293;SDS011;50636;45.596;5.258;2023-03-01T08:09:11;27.20;;;19.63;;
64293;SDS011;50636;45.596;5.258;2023-03-01T08:11:41;24.42;;;18.25;;
64293;SDS011;50636;45.596;5.258;2023-03-01T08:14:09;27.27;;;19.08;;
64293;SDS011;50636;45.596;5.258;2023-03-01T08:19:31;25.05;;;18.30;;
64293;SDS011;50636;45.596;5.258;2023-03-01T08:22:12;34.60;;;19.45;;
64293;SDS011;50636;45.596;5.258;2023-03-01T08:24:39;32.85;;;18.73;;
64293;SDS011;50636;45.596;5.258;2023-03-01T08:27:14;32.45;;;20.48;;
64293;SDS011;50636;45.596;5.258;2023-03-01T08:29:43;30.40;;;19.83;;
64293;SDS011;50636;45.596;5.258;2023-03-01T08:32:11;27.10;;;18.58;;
64293;SDS011;50636;45.596;5.258;2023-03-01T08:34:37;24.88;;;19.35;;
64293;SDS011;50636;45.596;5.258;2023-03-01T08:37:08;28.17;;;19.65;;
64293;SDS011;50636;45.596;5.258;2023-03-01T08:39:47;30.75;;;20.13;;
64293;SDS011;50636;45.596;5.258;2023-03-01T08:42:21;69.45;;;22.45;;
64293;SDS011;50636;45.596;5.258;2023-03-01T08:44:51;85.22;;;21.98;;
64293;SDS011;50636;45.596;5.258;2023-03-01T08:47:30;72.93;;;21.13;;
64293;SDS011;50636;45.596;5.258;2023-03-01T08:50:09;124.03;;;26.10;;
64293;SDS011;50636;45.596;5.258;2023-03-01T08:52:37;111.15;;;23.63;;
64293;SDS011;50636;45.596;5.258;2023-03-01T08:55:07;105.68;;;24.98;;
64293;SDS011;50636;45.596;5.258;2023-03-01T08:57:35;68.18;;;22.52;;
64293;SDS011;50636;45.596;5.258;2023-03-01T09:00:02;58.80;;;22.42;;
64293;SDS011;50636;45.596;5.258;2023-03-01T09:02:43;41.40;;;20.58;;
64293;SDS011;50636;45.596;5.258;2023-03-01T09:05:09;45.80;;;21.88;;
64293;SDS011;50636;45.596;5.258;2023-03-01T09:07:56;30.83;;;19.67;;
64293;SDS011;50636;45.596;5.258;2023-03-01T09:10:58;30.25;;;19.50;;
64293;SDS011;50636;45.596;5.258;2023-03-01T09:16:26;28.05;;;19.25;;
64293;SDS011;50636;45.596;5.258;2023-03-01T09:19:08;36.45;;;19.50;;
64293;SDS011;50636;45.596;5.258;2023-03-01T09:21:34;31.02;;;19.25;;
64293;SDS011;50636;45.596;5.258;2023-03-01T09:24:01;30.23;;;20.02;;
64293;SDS011;50636;45.596;5.258;2023-03-01T09:26:28;56.95;;;23.13;;
64293;SDS011;50636;45.596;5.258;2023-03-01T09:28:56;109.22;;;23.75;;
64293;SDS011;50636;45.596;5.258;2023-03-01T09:31:23;146.00;;;28.35;;
64293;SDS011;50636;45.596;5.258;2023-03-01T09:33:53;72.85;;;22.05;;
64293;SDS011;50636;45.596;5.258;2023-03-01T09:36:24;93.70;;;23.17;;
64293;SDS011;50636;45.596;5.258;2023-03-01T09:38:51;95.43;;;24.02;;
64293;SDS011;50636;45.596;5.258;2023-03-01T09:41:36;129.05;;;26.80;;
64293;SDS011;50636;45.596;5.258;2023-03-01T09:48:06;69.13;;;23.17;;
64293;SDS011;50636;45.596;5.258;2023-03-01T09:54:10;49.45;;;21.80;;
64293;SDS011;50636;45.596;5.258;2023-03-01T09:56:59;72.25;;;22.08;;
64293;SDS011;50636;45.596;5.258;2023-03-01T10:05:48;52.28;;;22.52;;
64293;SDS011;50636;45.596;5.258;2023-03-01T10:08:49;31.02;;;21.65;;
64293;SDS011;50636;45.596;5.258;2023-03-01T10:11:30;53.88;;;25.80;;
64293;SDS011;50636;45.596;5.258;2023-03-01T10:19:42;35.88;;;24.65;;
64293;SDS011;50636;45.596;5.258;2023-03-01T10:25:23;31.98;;;21.25;;
64293;SDS011;50636;45.596;5.258;2023-03-01T10:33:44;60.30;;;22.65;;
64293;SDS011;50636;45.596;5.258;2023-03-01T10:36:12;44.38;;;22.05;;
64293;SDS011;50636;45.596;5.258;2023-03-01T10:38:57;58.17;;;27.55;;
64293;SDS011;50636;45.596;5.258;2023-03-01T10:41:34;43.67;;;30.77;;
64293;SDS011;50636;45.596;5.258;2023-03-01T10:47:21;58.63;;;37.40;;
64293;SDS011;50636;45.596;5.258;2023-03-01T10:53:03;39.30;;;28.67;;
64293;SDS011;50636;45.596;5.258;2023-03-01T10:55:44;54.17;;;29.65;;
64293;SDS011;50636;45.596;5.258;2023-03-01T10:58:19;56.03;;;34.30;;
64293;SDS011;50636;45.596;5.258;2023-03-01T11:00:50;59.47;;;45.22;;
64293;SDS011;50636;45.596;5.258;2023-03-01T11:06:58;51.10;;;34.42;;
64293;SDS011;50636;45.596;5.258;2023-03-01T11:09:58;52.45;;;43.20;;
64293;SDS011;50636;45.596;5.258;2023-03-01T11:12:25;37.97;;;33.53;;
64293;SDS011;50636;45.596;5.258;2023-03-01T11:14:54;38.45;;;34.50;;
64293;SDS011;50636;45.596;5.258;2023-03-01T11:17:31;50.58;;;34.30;;
64293;SDS011;50636;45.596;5.258;2023-03-01T11:20:42;34.45;;;27.40;;
64293;SDS011;50636;45.596;5.258;2023-03-01T11:23:00;32.20;;;23.75;;
64293;SDS011;50636;45.596;5.258;2023-03-01T11:25:55;30.38;;;22.90;;
64293;SDS011;50636;45.596;5.258;2023-03-01T11:28:27;30.63;;;22.30;;
64293;SDS011;50636;45.596;5.258;2023-03-01T11:30:57;41.20;;;23.98;;
64293;SDS011;50636;45.596;5.258;2023-03-01T11:37:15;34.47;;;24.25;;
64293;SDS011;50636;45.596;5.258;2023-03-01T12:00:44;27.90;;;23.85;;
64293;SDS011;50636;45.596;5.258;2023-03-01T12:06:29;34.75;;;23.63;;
64293;SDS011;50636;45.596;5.258;2023-03-01T12:50:02;38.28;;;24.17;;
64293;SDS011;50636;45.596;5.258;2023-03-01T12:53:02;30.50;;;24.63;;
64293;SDS011;50636;45.596;5.258;2023-03-01T12:58:36;34.35;;;22.98;;
64293;SDS011;50636;45.596;5.258;2023-03-01T13:06:54;32.67;;;24.77;;
64293;SDS011;50636;45.596;5.258;2023-03-01T13:15:29;32.05;;;25.27;;
64293;SDS011;50636;45.596;5.258;2023-03-01T13:20:48;32.58;;;22.95;;
64293;SDS011;50636;45.596;5.258;2023-03-01T13:28:51;34.60;;;24.23;;
64293;SDS011;50636;45.596;5.258;2023-03-01T13:33:53;33.45;;;23.80;;
64293;SDS011;50636;45.596;5.258;2023-03-01T13:44:12;28.13;;;22.88;;
64293;SDS011;50636;45.596;5.258;2023-03-01T13:47:02;31.25;;;22.90;;
64293;SDS011;50636;45.596;5.258;2023-03-01T13:52:28;31.13;;;22.85;;
64293;SDS011;50636;45.596;5.258;2023-03-01T13:58:03;33.10;;;23.33;;
64293;SDS011;50636;45.596;5.258;2023-03-01T14:03:42;30.15;;;23.88;;
64293;SDS011;50636;45.596;5.258;2023-03-01T14:06:21;35.88;;;25.35;;
64293;SDS011;50636;45.596;5.258;2023-03-01T14:09:03;34.25;;;23.90;;
64293;SDS011;50636;45.596;5.258;2023-03-01T14:14:55;29.67;;;23.05;;
64293;SDS011;50636;45.596;5.258;2023-03-01T14:18:04;34.47;;;23.80;;
64293;SDS011;50636;45.596;5.258;2023-03-01T14:21:20;29.90;;;22.98;;
64293;SDS011;50636;45.596;5.258;2023-03-01T14:23:47;31.90;;;23.98;;
64293;SDS011;50636;45.596;5.258;2023-03-01T14:26:47;40.22;;;25.35;;
64293;SDS011;50636;45.596;5.258;2023-03-01T14:32:33;27.42;;;23.48;;
64293;SDS011;50636;45.596;5.258;2023-03-01T14:35:38;42.47;;;25.17;;
64293;SDS011;50636;45.596;5.258;2023-03-01T14:38:20;67.07;;;26.17;;
64293;SDS011;50636;45.596;5.258;2023-03-01T14:43:54;40.23;;;25.00;;
64293;SDS011;50636;45.596;5.258;2023-03-01T14:51:43;28.58;;;23.65;;
64293;SDS011;50636;45.596;5.258;2023-03-01T14:54:29;31.45;;;23.77;;
64293;SDS011;50636;45.596;5.258;2023-03-01T14:57:16;35.53;;;24.40;;
64293;SDS011;50636;45.596;5.258;2023-03-01T14:59:48;48.33;;;25.38;;
64293;SDS011;50636;45.596;5.258;2023-03-01T15:02:26;32.50;;;25.30;;
64293;SDS011;50636;45.596;5.258;2023-03-01T15:06:09;33.80;;;23.75;;
64293;SDS011;50636;45.596;5.258;2023-03-01T15:08:58;36.72;;;25.13;;
64293;SDS011;50636;45.596;5.258;2023-03-01T15:11:30;31.85;;;23.95;;
64293;SDS011;50636;45.596;5.258;2023-03-01T15:13:59;32.65;;;25.27;;
64293;SDS011;50636;45.596;5.258;2023-03-01T15:16:26;35.58;;;25.30;;
64293;SDS011;50636;45.596;5.258;2023-03-01T15:19:06;38.80;;;26.08;;
64293;SDS011;50636;45.596;5.258;2023-03-01T15:21:39;35.53;;;26.50;;
64293;SDS011;50636;45.596;5.258;2023-03-01T15:24:30;35.15;;;25.77;;
64293;SDS011;50636;45.596;5.258;2023-03-01T15:30:13;26.38;;;23.58;;
64293;SDS011;50636;45.596;5.258;2023-03-01T15:36:36;38.85;;;24.23;;
64293;SDS011;50636;45.596;5.258;2023-03-01T15:39:52;37.50;;;26.30;;
64293;SDS011;50636;45.596;5.258;2023-03-01T15:43:13;38.22;;;24.45;;
64293;SDS011;50636;45.596;5.258;2023-03-01T15:46:16;31.90;;;24.30;;
64293;SDS011;50636;45.596;5.258;2023-03-01T15:52:04;36.88;;;25.58;;
64293;SDS011;50636;45.596;5.258;2023-03-01T15:55:22;28.67;;;24.13;;
64293;SDS011;50636;45.596;5.258;2023-03-01T15:58:00;29.45;;;24.48;;
64293;SDS011;50636;45.596;5.258;2023-03-01T16:00:39;34.17;;;24.02;;
64293;SDS011;50636;45.596;5.258;2023-03-01T16:03:08;34.35;;;25.90;;
64293;SDS011;50636;45.596;5.258;2023-03-01T16:05:38;58.13;;;31.08;;
64293;SDS011;50636;45.596;5.258;2023-03-01T16:08:06;47.92;;;37.20;;
64293;SDS011;50636;45.596;5.258;2023-03-01T16:10:46;42.22;;;29.95;;
64293;SDS011;50636;45.596;5.258;2023-03-01T16:13:16;29.85;;;25.98;;
64293;SDS011;50636;45.596;5.258;2023-03-01T16:15:46;30.77;;;25.20;;
64293;SDS011;50636;45.596;5.258;2023-03-01T16:18:16;37.05;;;23.67;;
64293;SDS011;50636;45.596;5.258;2023-03-01T16:20:53;33.58;;;25.98;;
64293;SDS011;50636;45.596;5.258;2023-03-01T16:23:26;29.42;;;26.02;;
64293;SDS011;50636;45.596;5.258;2023-03-01T16:25:53;39.80;;;23.60;;
64293;SDS011;50636;45.596;5.258;2023-03-01T16:28:29;33.78;;;24.70;;
64293;SDS011;50636;45.596;5.258;2023-03-01T16:30:55;39.03;;;26.90;;
64293;SDS011;50636;45.596;5.258;2023-03-01T16:33:24;29.95;;;25.25;;
64293;SDS011;50636;45.596;5.258;2023-03-01T16:35:51;29.13;;;24.65;;
64293;SDS011;50636;45.596;5.258;2023-03-01T16:38:26;30.27;;;26.10;;
64293;SDS011;50636;45.596;5.258;2023-03-01T16:40:52;32.80;;;26.70;;
64293;SDS011;50636;45.596;5.258;2023-03-01T16:43:43;32.08;;;25.50;;
64293;SDS011;50636;45.596;5.258;2023-03-01T16:46:13;30.83;;;23.92;;
64293;SDS011;50636;45.596;5.258;2023-03-01T16:49:12;30.27;;;25.58;;
64293;SDS011;50636;45.596;5.258;2023-03-01T16:51:39;31.92;;;25.30;;
64293;SDS011;50636;45.596;5.258;2023-03-01T16:54:08;40.00;;;26.25;;
64293;SDS011;50636;45.596;5.258;2023-03-01T16:56:36;33.78;;;25.50;;
64293;SDS011;50636;45.596;5.258;2023-03-01T16:59:05;29.02;;;24.73;;
64293;SDS011;50636;45.596;5.258;2023-03-01T17:01:32;34.80;;;25.58;;
64293;SDS011;50636;45.596;5.258;2023-03-01T17:04:03;39.03;;;26.20;;
64293;SDS011;50636;45.596;5.258;2023-03-01T17:06:31;36.08;;;23.85;;
64293;SDS011;50636;45.596;5.258;2023-03-01T17:08:58;32.65;;;26.05;;
64293;SDS011;50636;45.596;5.258;2023-03-01T17:11:26;32.65;;;25.92;;
64293;SDS011;50636;45.596;5.258;2023-03-01T17:13:53;34.72;;;25.73;;
64293;SDS011;50636;45.596;5.258;2023-03-01T17:16:20;34.40;;;25.90;;
64293;SDS011;50636;45.596;5.258;2023-03-01T17:18:49;36.90;;;26.05;;
64293;SDS011;50636;45.596;5.258;2023-03-01T17:21:17;32.67;;;27.00;;
64293;SDS011;50636;45.596;5.258;2023-03-01T17:23:45;36.50;;;26.42;;
64293;SDS011;50636;45.596;5.258;2023-03-01T17:26:15;32.85;;;26.23;;
64293;SDS011;50636;45.596;5.258;2023-03-01T17:28:43;37.80;;;25.77;;
64293;SDS011;50636;45.596;5.258;2023-03-01T17:31:09;30.55;;;25.35;;
64293;SDS011;50636;45.596;5.258;2023-03-01T17:33:37;31.05;;;25.35;;
64293;SDS011;50636;45.596;5.258;2023-03-01T17:36:05;29.95;;;26.58;;
64293;SDS011;50636;45.596;5.258;2023-03-01T17:38:32;32.97;;;25.60;;
64293;SDS011;50636;45.596;5.258;2023-03-01T17:40:59;32.80;;;26.38;;
64293;SDS011;50636;45.596;5.258;2023-03-01T17:43:26;32.80;;;25.45;;
64293;SDS011;50636;45.596;5.258;2023-03-01T17:45:56;35.33;;;26.50;;
64293;SDS011;50636;45.596;5.258;2023-03-01T17:48:23;32.42;;;26.50;;
64293;SDS011;50636;45.596;5.258;2023-03-01T17:50:51;34.38;;;26.10;;
64293;SDS011;50636;45.596;5.258;2023-03-01T17:53:21;30.08;;;26.15;;
64293;SDS011;50636;45.596;5.258;2023-03-01T17:55:48;34.90;;;27.00;;
64293;SDS011;50636;45.596;5.258;2023-03-01T17:58:19;37.72;;;26.13;;
64293;SDS011;50636;45.596;5.258;2023-03-01T18:00:48;33.83;;;26.45;;
64293;SDS011;50636;45.596;5.258;2023-03-01T18:03:17;37.95;;;26.92;;
64293;SDS011;50636;45.596;5.258;2023-03-01T18:05:47;32.65;;;27.48;;
64293;SDS011;50636;45.596;5.258;2023-03-01T18:08:14;33.55;;;27.30;;
64293;SDS011;50636;45.596;5.258;2023-03-01T18:10:43;29.67;;;25.65;;
64293;SDS011;50636;45.596;5.258;2023-03-01T18:13:10;31.10;;;25.42;;
64293;SDS011;50636;45.596;5.258;2023-03-01T18:15:46;31.67;;;26.20;;
64293;SDS011;50636;45.596;5.258;2023-03-01T18:18:15;33.92;;;27.50;;
64293;SDS011;50636;45.596;5.258;2023-03-01T18:20:42;32.65;;;26.23;;
64293;SDS011;50636;45.596;5.258;2023-03-01T18:23:22;33.67;;;25.70;;
64293;SDS011;50636;45.596;5.258;2023-03-01T18:26:08;31.50;;;25.70;;
64293;SDS011;50636;45.596;5.258;2023-03-01T18:29:10;30.80;;;27.50;;
64293;SDS011;50636;45.596;5.258;2023-03-01T18:31:36;36.88;;;27.30;;
64293;SDS011;50636;45.596;5.258;2023-03-01T18:34:26;32.95;;;28.00;;
64293;SDS011;50636;45.596;5.258;2023-03-01T18:36:55;30.85;;;25.55;;
64293;SDS011;50636;45.596;5.258;2023-03-01T18:39:22;33.90;;;27.25;;
64293;SDS011;50636;45.596;5.258;2023-03-01T18:41:49;36.80;;;25.40;;
64293;SDS011;50636;45.596;5.258;2023-03-01T18:44:16;42.20;;;27.70;;
64293;SDS011;50636;45.596;5.258;2023-03-01T18:46:44;40.25;;;27.27;;
64293;SDS011;50636;45.596;5.258;2023-03-01T18:49:14;39.90;;;27.25;;
64293;SDS011;50636;45.596;5.258;2023-03-01T18:51:42;36.33;;;26.63;;
64293;SDS011;50636;45.596;5.258;2023-03-01T18:54:14;41.83;;;26.77;;
64293;SDS011;50636;45.596;5.258;2023-03-01T18:56:41;43.38;;;26.70;;
64293;SDS011;50636;45.596;5.258;2023-03-01T18:59:10;34.60;;;27.45;;
64293;SDS011;50636;45.596;5.258;2023-03-01T19:01:40;33.17;;;26.33;;
64293;SDS011;50636;45.596;5.258;2023-03-01T19:04:09;30.77;;;26.52;;
64293;SDS011;50636;45.596;5.258;2023-03-01T19:06:39;41.47;;;26.88;;